sensor_id;sensor_type;location;lat;lon;timestamp;P1;P2;P0
40947;PMS5003;49382;-25.924;28.194;2022-12-07T00:01:04;1;1;
40947;PMS5003;49382;-25.924;28.194;2022-12-07T00:03:29;1;1;
40947;PMS5003;49382;-25.924;28.194;2022-12-07T00:05:57;0;0;
40947;PMS5003;49382;-25.924;28.194;2022-12-07T00:08:21;1;1;
40947;PMS5003;49382;-25.924;28.194;2022-12-07T00:10:47;2;2;
40947;PMS5003;49382;-25.924;28.194;2022-12-07T00:13:12;1;1;
40947;PMS5003;49382;-25.924;28.194;2022-12-07T00:15:38;1;1;
40947;PMS5003;49382;-25.924;28.194;2022-12-07T00:18:04;0;0;
40947;PMS5003;49382;-25.924;28.194;2022-12-07T00:20:30;2;2;
40947;PMS5003;49382;-25.924;28.194;2022-12-07T00:22:56;4;4;
40947;PMS5003;49382;-25.924;28.194;2022-12-07T00:25:21;2;2;
40947;PMS5003;49382;-25.924;28.194;2022-12-07T00:27:47;4;4;
40947;PMS5003;49382;-25.924;28.194;2022-12-07T00:30:13;2;2;
40947;PMS5003;49382;-25.924;28.194;2022-12-07T00:32:39;7;7;
40947;PMS5003;49382;-25.924;28.194;2022-12-07T00:35:05;1;1;
40947;PMS5003;49382;-25.924;28.194;2022-12-07T00:37:30;5;5;
40947;PMS5003;49382;-25.924;28.194;2022-12-07T00:39:56;2;2;
40947;PMS5003;49382;-25.924;28.194;2022-12-07T00:42:22;2;1;
40947;PMS5003;49382;-25.924;28.194;2022-12-07T00:44:48;3;3;
40947;PMS5003;49382;-25.924;28.194;2022-12-07T00:47:14;4;4;
40947;PMS5003;49382;-25.924;28.194;2022-12-07T00:49:39;5;5;
40947;PMS5003;49382;-25.924;28.194;2022-12-07T00:52:05;2;2;
40947;PMS5003;49382;-25.924;28.194;2022-12-07T00:54:30;1;1;
40947;PMS5003;49382;-25.924;28.194;2022-12-07T00:56:56;4;4;
40947;PMS5003;49382;-25.924;28.194;2022-12-07T00:59:22;2;2;
40947;PMS5003;49382;-25.924;28.194;2022-12-07T01:01:48;2;2;
40947;PMS5003;49382;-25.924;28.194;2022-12-07T01:04:14;1;1;
40947;PMS5003;49382;-25.924;28.194;2022-12-07T01:06:40;1;1;
40947;PMS5003;49382;-25.924;28.194;2022-12-07T01:09:05;3;3;
40947;PMS5003;49382;-25.924;28.194;2022-12-07T01:11:31;2;2;
40947;PMS5003;49382;-25.924;28.194;2022-12-07T01:13:58;7;6;
40947;PMS5003;49382;-25.924;28.194;2022-12-07T01:16:23;7;7;
40947;PMS5003;49382;-25.924;28.194;2022-12-07T01:18:48;5;5;
40947;PMS5003;49382;-25.924;28.194;2022-12-07T01:21:13;3;3;
40947;PMS5003;49382;-25.924;28.194;2022-12-07T01:23:38;6;6;
40947;PMS5003;49382;-25.924;28.194;2022-12-07T01:26:05;4;4;
40947;PMS5003;49382;-25.924;28.194;2022-12-07T01:28:29;5;5;
40947;PMS5003;49382;-25.924;28.194;2022-12-07T01:30:56;4;4;
40947;PMS5003;49382;-25.924;28.194;2022-12-07T01:33:21;3;3;
40947;PMS5003;49382;-25.924;28.194;2022-12-07T01:35:47;4;4;
40947;PMS5003;49382;-25.924;28.194;2022-12-07T01:38:13;3;3;
40947;PMS5003;49382;-25.924;28.194;2022-12-07T01:40:39;2;2;
40947;PMS5003;49382;-25.924;28.194;2022-12-07T01:43:07;3;3;
40947;PMS5003;49382;-25.924;28.194;2022-12-07T01:47:56;4;4;
40947;PMS5003;49382;-25.924;28.194;2022-12-07T01:50:23;4;4;
40947;PMS5003;49382;-25.924;28.194;2022-12-07T01:52:48;1;1;
40947;PMS5003;49382;-25.924;28.194;2022-12-07T01:55:14;2;2;
40947;PMS5003;49382;-25.924;28.194;2022-12-07T01:57:40;3;3;
40947;PMS5003;49382;-25.924;28.194;2022-12-07T02:00:05;2;2;
40947;PMS5003;49382;-25.924;28.194;2022-12-07T02:02:31;2;2;
40947;PMS5003;49382;-25.924;28.194;2022-12-07T02:04:56;2;2;
40947;PMS5003;49382;-25.924;28.194;2022-12-07T02:07:22;2;2;
40947;PMS5003;49382;-25.924;28.194;2022-12-07T02:09:48;2;1;
40947;PMS5003;49382;-25.924;28.194;2022-12-07T02:12:13;0;0;
40947;PMS5003;49382;-25.924;28.194;2022-12-07T02:14:39;3;3;
40947;PMS5003;49382;-25.924;28.194;2022-12-07T02:17:07;1;1;
40947;PMS5003;49382;-25.924;28.194;2022-12-07T02:21:58;1;1;
40947;PMS5003;49382;-25.924;28.194;2022-12-07T02:24:27;2;2;
40947;PMS5003;49382;-25.924;28.194;2022-12-07T02:29:17;2;2;
40947;PMS5003;49382;-25.924;28.194;2022-12-07T02:31:43;2;2;
40947;PMS5003;49382;-25.924;28.194;2022-12-07T02:34:07;1;1;
40947;PMS5003;49382;-25.924;28.194;2022-12-07T02:36:32;1;1;
40947;PMS5003;49382;-25.924;28.194;2022-12-07T02:38:58;1;1;
40947;PMS5003;49382;-25.924;28.194;2022-12-07T02:41:24;2;2;
40947;PMS5003;49382;-25.924;28.194;2022-12-07T02:43:50;2;2;
40947;PMS5003;49382;-25.924;28.194;2022-12-07T02:46:15;0;0;
40947;PMS5003;49382;-25.924;28.194;2022-12-07T02:48:40;1;1;
40947;PMS5003;49382;-25.924;28.194;2022-12-07T02:51:05;1;1;
40947;PMS5003;49382;-25.924;28.194;2022-12-07T02:53:32;2;2;
40947;PMS5003;49382;-25.924;28.194;2022-12-07T02:55:57;1;1;
40947;PMS5003;49382;-25.924;28.194;2022-12-07T02:58:26;2;2;
40947;PMS5003;49382;-25.924;28.194;2022-12-07T03:00:50;1;1;
40947;PMS5003;49382;-25.924;28.194;2022-12-07T03:03:14;1;1;
40947;PMS5003;49382;-25.924;28.194;2022-12-07T03:08:06;1;1;
40947;PMS5003;49382;-25.924;28.194;2022-12-07T03:10:34;3;3;
40947;PMS5003;49382;-25.924;28.194;2022-12-07T03:13:00;1;1;
40947;PMS5003;49382;-25.924;28.194;2022-12-07T03:15:26;2;2;
40947;PMS5003;49382;-25.924;28.194;2022-12-07T03:17:49;1;1;
40947;PMS5003;49382;-25.924;28.194;2022-12-07T03:20:16;2;2;
40947;PMS5003;49382;-25.924;28.194;2022-12-07T03:22:41;1;1;
40947;PMS5003;49382;-25.924;28.194;2022-12-07T03:25:07;1;1;
40947;PMS5003;49382;-25.924;28.194;2022-12-07T03:27:31;1;1;
40947;PMS5003;49382;-25.924;28.194;2022-12-07T03:29:58;1;1;
40947;PMS5003;49382;-25.924;28.194;2022-12-07T03:32:23;2;2;
40947;PMS5003;49382;-25.924;28.194;2022-12-07T03:34:49;1;1;
40947;PMS5003;49382;-25.924;28.194;2022-12-07T03:37:16;0;0;
40947;PMS5003;49382;-25.924;28.194;2022-12-07T03:39:41;1;1;
40947;PMS5003;49382;-25.924;28.194;2022-12-07T03:42:06;0;0;
40947;PMS5003;49382;-25.924;28.194;2022-12-07T03:44:32;1;1;
40947;PMS5003;49382;-25.924;28.194;2022-12-07T03:46:59;1;1;
40947;PMS5003;49382;-25.924;28.194;2022-12-07T03:49:25;0;0;
40947;PMS5003;49382;-25.924;28.194;2022-12-07T03:51:50;2;2;
40947;PMS5003;49382;-25.924;28.194;2022-12-07T03:54:17;2;2;
40947;PMS5003;49382;-25.924;28.194;2022-12-07T03:56:41;2;2;
40947;PMS5003;49382;-25.924;28.194;2022-12-07T03:59:07;2;1;
40947;PMS5003;49382;-25.924;28.194;2022-12-07T04:01:33;2;2;
40947;PMS5003;49382;-25.924;28.194;2022-12-07T04:03:58;4;4;
40947;PMS5003;49382;-25.924;28.194;2022-12-07T04:06:24;4;4;
40947;PMS5003;49382;-25.924;28.194;2022-12-07T04:08:50;3;3;
40947;PMS5003;49382;-25.924;28.194;2022-12-07T04:11:16;3;3;
40947;PMS5003;49382;-25.924;28.194;2022-12-07T04:13:42;3;3;
40947;PMS5003;49382;-25.924;28.194;2022-12-07T04:16:08;2;2;
40947;PMS5003;49382;-25.924;28.194;2022-12-07T04:18:34;1;1;
40947;PMS5003;49382;-25.924;28.194;2022-12-07T04:20:58;2;2;
40947;PMS5003;49382;-25.924;28.194;2022-12-07T04:23:24;0;0;
40947;PMS5003;49382;-25.924;28.194;2022-12-07T04:25:50;1;1;
40947;PMS5003;49382;-25.924;28.194;2022-12-07T04:28:16;2;2;
40947;PMS5003;49382;-25.924;28.194;2022-12-07T04:30:42;1;1;
40947;PMS5003;49382;-25.924;28.194;2022-12-07T04:33:08;2;2;
40947;PMS5003;49382;-25.924;28.194;2022-12-07T04:35:33;1;1;
40947;PMS5003;49382;-25.924;28.194;2022-12-07T04:37:59;1;1;
40947;PMS5003;49382;-25.924;28.194;2022-12-07T04:40:24;2;2;
40947;PMS5003;49382;-25.924;28.194;2022-12-07T04:42:50;2;2;
40947;PMS5003;49382;-25.924;28.194;2022-12-07T04:45:16;1;1;
40947;PMS5003;49382;-25.924;28.194;2022-12-07T04:47:42;1;1;
40947;PMS5003;49382;-25.924;28.194;2022-12-07T04:50:09;0;0;
40947;PMS5003;49382;-25.924;28.194;2022-12-07T04:52:33;1;1;
40947;PMS5003;49382;-25.924;28.194;2022-12-07T04:54:59;2;2;
40947;PMS5003;49382;-25.924;28.194;2022-12-07T04:57:24;1;1;
40947;PMS5003;49382;-25.924;28.194;2022-12-07T04:59:50;2;2;
40947;PMS5003;49382;-25.924;28.194;2022-12-07T05:02:16;1;1;
40947;PMS5003;49382;-25.924;28.194;2022-12-07T05:04:42;1;1;
40947;PMS5003;49382;-25.924;28.194;2022-12-07T05:07:07;1;1;
40947;PMS5003;49382;-25.924;28.194;2022-12-07T05:09:33;1;1;
40947;PMS5003;49382;-25.924;28.194;2022-12-07T05:11:59;1;1;
40947;PMS5003;49382;-25.924;28.194;2022-12-07T05:14:25;1;1;
40947;PMS5003;49382;-25.924;28.194;2022-12-07T05:16:51;1;1;
40947;PMS5003;49382;-25.924;28.194;2022-12-07T05:19:17;2;2;
40947;PMS5003;49382;-25.924;28.194;2022-12-07T05:21:42;2;2;
40947;PMS5003;49382;-25.924;28.194;2022-12-07T05:24:08;1;1;
40947;PMS5003;49382;-25.924;28.194;2022-12-07T05:26:33;1;1;
40947;PMS5003;49382;-25.924;28.194;2022-12-07T05:28:59;1;1;
40947;PMS5003;49382;-25.924;28.194;2022-12-07T05:31:25;1;1;
40947;PMS5003;49382;-25.924;28.194;2022-12-07T05:33:51;1;1;
40947;PMS5003;49382;-25.924;28.194;2022-12-07T05:36:16;2;2;
40947;PMS5003;49382;-25.924;28.194;2022-12-07T05:38:42;1;1;
40947;PMS5003;49382;-25.924;28.194;2022-12-07T05:41:08;1;1;
40947;PMS5003;49382;-25.924;28.194;2022-12-07T05:43:33;1;1;
40947;PMS5003;49382;-25.924;28.194;2022-12-07T05:46:00;2;2;
40947;PMS5003;49382;-25.924;28.194;2022-12-07T05:48:26;1;1;
40947;PMS5003;49382;-25.924;28.194;2022-12-07T05:50:50;3;3;
40947;PMS5003;49382;-25.924;28.194;2022-12-07T05:53:16;2;2;
40947;PMS5003;49382;-25.924;28.194;2022-12-07T05:55:43;3;3;
40947;PMS5003;49382;-25.924;28.194;2022-12-07T05:58:08;2;2;
40947;PMS5003;49382;-25.924;28.194;2022-12-07T06:00:33;2;2;
40947;PMS5003;49382;-25.924;28.194;2022-12-07T06:02:59;2;2;
40947;PMS5003;49382;-25.924;28.194;2022-12-07T06:05:25;2;2;
40947;PMS5003;49382;-25.924;28.194;2022-12-07T06:07:51;2;2;
40947;PMS5003;49382;-25.924;28.194;2022-12-07T06:10:17;4;4;
40947;PMS5003;49382;-25.924;28.194;2022-12-07T06:12:42;4;4;
40947;PMS5003;49382;-25.924;28.194;2022-12-07T06:15:09;2;2;
40947;PMS5003;49382;-25.924;28.194;2022-12-07T06:17:34;4;4;
40947;PMS5003;49382;-25.924;28.194;2022-12-07T06:20:00;2;2;
40947;PMS5003;49382;-25.924;28.194;2022-12-07T06:22:26;2;2;
40947;PMS5003;49382;-25.924;28.194;2022-12-07T06:24:51;1;1;
40947;PMS5003;49382;-25.924;28.194;2022-12-07T06:27:17;2;2;
40947;PMS5003;49382;-25.924;28.194;2022-12-07T06:29:43;1;1;
40947;PMS5003;49382;-25.924;28.194;2022-12-07T06:32:09;2;2;
40947;PMS5003;49382;-25.924;28.194;2022-12-07T06:34:34;0;0;
40947;PMS5003;49382;-25.924;28.194;2022-12-07T06:37:00;2;2;
40947;PMS5003;49382;-25.924;28.194;2022-12-07T06:39:27;2;2;
40947;PMS5003;49382;-25.924;28.194;2022-12-07T06:41:52;3;3;
40947;PMS5003;49382;-25.924;28.194;2022-12-07T06:44:18;0;0;
40947;PMS5003;49382;-25.924;28.194;2022-12-07T06:46:43;2;2;
40947;PMS5003;49382;-25.924;28.194;2022-12-07T06:49:09;1;1;
40947;PMS5003;49382;-25.924;28.194;2022-12-07T06:51:35;2;2;
40947;PMS5003;49382;-25.924;28.194;2022-12-07T06:54:01;0;0;
40947;PMS5003;49382;-25.924;28.194;2022-12-07T06:56:26;2;2;
40947;PMS5003;49382;-25.924;28.194;2022-12-07T06:58:52;1;1;
40947;PMS5003;49382;-25.924;28.194;2022-12-07T07:01:18;2;2;
40947;PMS5003;49382;-25.924;28.194;2022-12-07T07:03:44;3;2;
40947;PMS5003;49382;-25.924;28.194;2022-12-07T07:06:10;2;2;
40947;PMS5003;49382;-25.924;28.194;2022-12-07T07:08:36;2;2;
40947;PMS5003;49382;-25.924;28.194;2022-12-07T07:11:01;1;1;
40947;PMS5003;49382;-25.924;28.194;2022-12-07T07:13:27;2;2;
40947;PMS5003;49382;-25.924;28.194;2022-12-07T07:15:53;1;1;
40947;PMS5003;49382;-25.924;28.194;2022-12-07T07:18:18;2;1;
40947;PMS5003;49382;-25.924;28.194;2022-12-07T07:20:44;1;1;
40947;PMS5003;49382;-25.924;28.194;2022-12-07T07:23:10;58;58;
40947;PMS5003;49382;-25.924;28.194;2022-12-07T07:25:35;53;53;
40947;PMS5003;49382;-25.924;28.194;2022-12-07T07:28:01;9;9;
40947;PMS5003;49382;-25.924;28.194;2022-12-07T07:30:27;10;10;
40947;PMS5003;49382;-25.924;28.194;2022-12-07T07:32:56;10;10;
40947;PMS5003;49382;-25.924;28.194;2022-12-07T07:35:18;3;3;
40947;PMS5003;49382;-25.924;28.194;2022-12-07T07:37:44;3;3;
40947;PMS5003;49382;-25.924;28.194;2022-12-07T07:40:10;0;0;
40947;PMS5003;49382;-25.924;28.194;2022-12-07T07:42:36;1;1;
40947;PMS5003;49382;-25.924;28.194;2022-12-07T07:45:01;2;2;
40947;PMS5003;49382;-25.924;28.194;2022-12-07T07:47:27;1;1;
40947;PMS5003;49382;-25.924;28.194;2022-12-07T07:49:53;1;1;
40947;PMS5003;49382;-25.924;28.194;2022-12-07T07:52:19;1;1;
40947;PMS5003;49382;-25.924;28.194;2022-12-07T07:54:44;1;1;
40947;PMS5003;49382;-25.924;28.194;2022-12-07T07:57:10;2;2;
40947;PMS5003;49382;-25.924;28.194;2022-12-07T07:59:36;1;1;
40947;PMS5003;49382;-25.924;28.194;2022-12-07T08:02:02;2;2;
40947;PMS5003;49382;-25.924;28.194;2022-12-07T08:04:27;1;1;
40947;PMS5003;49382;-25.924;28.194;2022-12-07T08:06:53;2;1;
40947;PMS5003;49382;-25.924;28.194;2022-12-07T08:09:19;1;1;
40947;PMS5003;49382;-25.924;28.194;2022-12-07T08:11:45;0;0;
40947;PMS5003;49382;-25.924;28.194;2022-12-07T08:14:10;1;1;
40947;PMS5003;49382;-25.924;28.194;2022-12-07T08:16:36;1;1;
40947;PMS5003;49382;-25.924;28.194;2022-12-07T08:19:02;1;1;
40947;PMS5003;49382;-25.924;28.194;2022-12-07T08:21:28;0;0;
40947;PMS5003;49382;-25.924;28.194;2022-12-07T08:23:53;1;1;
40947;PMS5003;49382;-25.924;28.194;2022-12-07T08:26:19;1;1;
40947;PMS5003;49382;-25.924;28.194;2022-12-07T08:28:45;1;1;
40947;PMS5003;49382;-25.924;28.194;2022-12-07T08:31:11;1;1;
40947;PMS5003;49382;-25.924;28.194;2022-12-07T08:33:36;0;0;
40947;PMS5003;49382;-25.924;28.194;2022-12-07T08:36:03;2;2;
40947;PMS5003;49382;-25.924;28.194;2022-12-07T08:38:28;1;1;
40947;PMS5003;49382;-25.924;28.194;2022-12-07T08:40:54;1;1;
40947;PMS5003;49382;-25.924;28.194;2022-12-07T08:43:19;2;2;
40947;PMS5003;49382;-25.924;28.194;2022-12-07T08:45:45;2;2;
40947;PMS5003;49382;-25.924;28.194;2022-12-07T08:48:11;1;1;
40947;PMS5003;49382;-25.924;28.194;2022-12-07T08:50:37;0;0;
40947;PMS5003;49382;-25.924;28.194;2022-12-07T08:53:02;1;1;
40947;PMS5003;49382;-25.924;28.194;2022-12-07T08:55:28;1;1;
40947;PMS5003;49382;-25.924;28.194;2022-12-07T08:57:54;1;1;
40947;PMS5003;49382;-25.924;28.194;2022-12-07T09:00:19;2;1;
40947;PMS5003;49382;-25.924;28.194;2022-12-07T09:02:44;2;2;
40947;PMS5003;49382;-25.924;28.194;2022-12-07T09:05:10;1;1;
40947;PMS5003;49382;-25.924;28.194;2022-12-07T09:07:36;2;2;
40947;PMS5003;49382;-25.924;28.194;2022-12-07T09:10:02;4;3;
40947;PMS5003;49382;-25.924;28.194;2022-12-07T09:12:27;2;2;
40947;PMS5003;49382;-25.924;28.194;2022-12-07T09:14:53;2;2;
40947;PMS5003;49382;-25.924;28.194;2022-12-07T09:17:19;0;0;
40947;PMS5003;49382;-25.924;28.194;2022-12-07T09:19:45;0;0;
40947;PMS5003;49382;-25.924;28.194;2022-12-07T09:22:10;2;2;
40947;PMS5003;49382;-25.924;28.194;2022-12-07T09:24:36;1;1;
40947;PMS5003;49382;-25.924;28.194;2022-12-07T09:27:01;2;2;
40947;PMS5003;49382;-25.924;28.194;2022-12-07T09:29:27;0;0;
40947;PMS5003;49382;-25.924;28.194;2022-12-07T09:31:53;1;1;
40947;PMS5003;49382;-25.924;28.194;2022-12-07T09:34:19;1;1;
40947;PMS5003;49382;-25.924;28.194;2022-12-07T09:36:44;0;0;
40947;PMS5003;49382;-25.924;28.194;2022-12-07T09:39:10;1;1;
40947;PMS5003;49382;-25.924;28.194;2022-12-07T09:41:37;0;0;
40947;PMS5003;49382;-25.924;28.194;2022-12-07T09:44:04;1;1;
40947;PMS5003;49382;-25.924;28.194;2022-12-07T09:46:27;0;0;
40947;PMS5003;49382;-25.924;28.194;2022-12-07T09:48:53;1;1;
40947;PMS5003;49382;-25.924;28.194;2022-12-07T09:51:19;1;1;
40947;PMS5003;49382;-25.924;28.194;2022-12-07T09:53:45;2;1;
40947;PMS5003;49382;-25.924;28.194;2022-12-07T09:56:11;1;1;
40947;PMS5003;49382;-25.924;28.194;2022-12-07T09:58:36;4;4;
40947;PMS5003;49382;-25.924;28.194;2022-12-07T10:01:08;2;2;
40947;PMS5003;49382;-25.924;28.194;2022-12-07T10:03:28;2;1;
40947;PMS5003;49382;-25.924;28.194;2022-12-07T10:05:53;1;1;
40947;PMS5003;49382;-25.924;28.194;2022-12-07T10:08:19;1;1;
40947;PMS5003;49382;-25.924;28.194;2022-12-07T10:10:45;3;3;
40947;PMS5003;49382;-25.924;28.194;2022-12-07T10:13:11;3;3;
40947;PMS5003;49382;-25.924;28.194;2022-12-07T10:18:02;4;4;
40947;PMS5003;49382;-25.924;28.194;2022-12-07T10:20:28;1;1;
40947;PMS5003;49382;-25.924;28.194;2022-12-07T10:22:56;2;2;
40947;PMS5003;49382;-25.924;28.194;2022-12-07T10:25:20;3;3;
40947;PMS5003;49382;-25.924;28.194;2022-12-07T10:27:45;4;3;
40947;PMS5003;49382;-25.924;28.194;2022-12-07T10:30:13;4;4;
40947;PMS5003;49382;-25.924;28.194;2022-12-07T10:32:37;2;2;
40947;PMS5003;49382;-25.924;28.194;2022-12-07T10:37:28;2;2;
40947;PMS5003;49382;-25.924;28.194;2022-12-07T10:39:55;3;3;
40947;PMS5003;49382;-25.924;28.194;2022-12-07T10:42:20;3;3;
40947;PMS5003;49382;-25.924;28.194;2022-12-07T10:44:45;2;2;
40947;PMS5003;49382;-25.924;28.194;2022-12-07T10:52:03;84;84;
40947;PMS5003;49382;-25.924;28.194;2022-12-07T10:54:29;72;72;
40947;PMS5003;49382;-25.924;28.194;2022-12-07T10:56:56;60;60;
40947;PMS5003;49382;-25.924;28.194;2022-12-07T11:01:45;94;94;
40947;PMS5003;49382;-25.924;28.194;2022-12-07T11:06:36;60;60;
40947;PMS5003;49382;-25.924;28.194;2022-12-07T11:09:04;62;62;
40947;PMS5003;49382;-25.924;28.194;2022-12-07T11:11:29;24;24;
40947;PMS5003;49382;-25.924;28.194;2022-12-07T11:13:52;61;61;
40947;PMS5003;49382;-25.924;28.194;2022-12-07T11:16:21;41;41;
40947;PMS5003;49382;-25.924;28.194;2022-12-07T11:18:44;45;45;
40947;PMS5003;49382;-25.924;28.194;2022-12-07T11:21:09;5;5;
40947;PMS5003;49382;-25.924;28.194;2022-12-07T11:23:39;17;17;
40947;PMS5003;49382;-25.924;28.194;2022-12-07T11:26:01;23;23;
40947;PMS5003;49382;-25.924;28.194;2022-12-07T11:28:30;15;15;
40947;PMS5003;49382;-25.924;28.194;2022-12-07T11:30:53;10;10;
40947;PMS5003;49382;-25.924;28.194;2022-12-07T11:33:17;14;13;
40947;PMS5003;49382;-25.924;28.194;2022-12-07T11:35:47;18;18;
40947;PMS5003;49382;-25.924;28.194;2022-12-07T11:38:10;23;23;
40947;PMS5003;49382;-25.924;28.194;2022-12-07T11:40:35;14;14;
40947;PMS5003;49382;-25.924;28.194;2022-12-07T11:43:01;10;10;
40947;PMS5003;49382;-25.924;28.194;2022-12-07T11:45:26;6;6;
40947;PMS5003;49382;-25.924;28.194;2022-12-07T11:47:53;12;12;
40947;PMS5003;49382;-25.924;28.194;2022-12-07T11:50:24;19;18;
40947;PMS5003;49382;-25.924;28.194;2022-12-07T11:52:45;18;18;
40947;PMS5003;49382;-25.924;28.194;2022-12-07T11:55:14;19;19;
40947;PMS5003;49382;-25.924;28.194;2022-12-07T11:57:36;20;20;
40947;PMS5003;49382;-25.924;28.194;2022-12-07T12:00:03;12;12;
40947;PMS5003;49382;-25.924;28.194;2022-12-07T12:02:28;6;6;
40947;PMS5003;49382;-25.924;28.194;2022-12-07T12:04:54;4;4;
40947;PMS5003;49382;-25.924;28.194;2022-12-07T12:07:20;4;4;
40947;PMS5003;49382;-25.924;28.194;2022-12-07T12:09:45;4;4;
40947;PMS5003;49382;-25.924;28.194;2022-12-07T12:12:15;10;10;
40947;PMS5003;49382;-25.924;28.194;2022-12-07T12:14:39;10;10;
40947;PMS5003;49382;-25.924;28.194;2022-12-07T12:19:28;12;12;
40947;PMS5003;49382;-25.924;28.194;2022-12-07T12:21:54;28;28;
40947;PMS5003;49382;-25.924;28.194;2022-12-07T12:24:19;16;16;
40947;PMS5003;49382;-25.924;28.194;2022-12-07T12:26:48;30;29;
40947;PMS5003;49382;-25.924;28.194;2022-12-07T12:31:36;10;10;
40947;PMS5003;49382;-25.924;28.194;2022-12-07T12:34:02;2;2;
40947;PMS5003;49382;-25.924;28.194;2022-12-07T12:36:28;1;1;
40947;PMS5003;49382;-25.924;28.194;2022-12-07T12:43:46;2;2;
40947;PMS5003;49382;-25.924;28.194;2022-12-07T12:48:35;2;2;
40947;PMS5003;49382;-25.924;28.194;2022-12-07T12:53:26;2;2;
40947;PMS5003;49382;-25.924;28.194;2022-12-07T12:55:58;1;1;
40947;PMS5003;49382;-25.924;28.194;2022-12-07T13:00:44;1;1;
40947;PMS5003;49382;-25.924;28.194;2022-12-07T13:05:35;2;2;
40947;PMS5003;49382;-25.924;28.194;2022-12-07T13:08:01;2;2;
40947;PMS5003;49382;-25.924;28.194;2022-12-07T13:12:55;3;3;
40947;PMS5003;49382;-25.924;28.194;2022-12-07T13:20:39;4;3;
40947;PMS5003;49382;-25.924;28.194;2022-12-07T13:22:38;3;2;
40947;PMS5003;49382;-25.924;28.194;2022-12-07T13:25:03;2;1;
40947;PMS5003;49382;-25.924;28.194;2022-12-07T13:27:27;2;2;
40947;PMS5003;49382;-25.924;28.194;2022-12-07T13:29:53;3;3;
40947;PMS5003;49382;-25.924;28.194;2022-12-07T13:32:21;3;3;
40947;PMS5003;49382;-25.924;28.194;2022-12-07T13:34:44;2;2;
40947;PMS5003;49382;-25.924;28.194;2022-12-07T13:37:10;2;2;
40947;PMS5003;49382;-25.924;28.194;2022-12-07T13:39:44;2;2;
40947;PMS5003;49382;-25.924;28.194;2022-12-07T13:42:08;2;2;
40947;PMS5003;49382;-25.924;28.194;2022-12-07T13:44:27;2;2;
40947;PMS5003;49382;-25.924;28.194;2022-12-07T13:46:55;4;4;
40947;PMS5003;49382;-25.924;28.194;2022-12-07T13:49:20;5;4;
40947;PMS5003;49382;-25.924;28.194;2022-12-07T13:51:44;4;3;
40947;PMS5003;49382;-25.924;28.194;2022-12-07T13:54:11;4;4;
40947;PMS5003;49382;-25.924;28.194;2022-12-07T13:56:36;4;4;
40947;PMS5003;49382;-25.924;28.194;2022-12-07T13:59:02;2;2;
40947;PMS5003;49382;-25.924;28.194;2022-12-07T14:01:28;3;3;
40947;PMS5003;49382;-25.924;28.194;2022-12-07T14:03:53;2;2;
40947;PMS5003;49382;-25.924;28.194;2022-12-07T14:06:21;2;2;
40947;PMS5003;49382;-25.924;28.194;2022-12-07T14:08:45;3;3;
40947;PMS5003;49382;-25.924;28.194;2022-12-07T14:11:12;3;3;
40947;PMS5003;49382;-25.924;28.194;2022-12-07T14:13:37;5;3;
40947;PMS5003;49382;-25.924;28.194;2022-12-07T14:16:02;3;3;
40947;PMS5003;49382;-25.924;28.194;2022-12-07T14:18:29;3;3;
40947;PMS5003;49382;-25.924;28.194;2022-12-07T14:23:21;3;3;
40947;PMS5003;49382;-25.924;28.194;2022-12-07T14:25:46;4;3;
40947;PMS5003;49382;-25.924;28.194;2022-12-07T14:30:36;3;3;
40947;PMS5003;49382;-25.924;28.194;2022-12-07T14:33:03;1;1;
40947;PMS5003;49382;-25.924;28.194;2022-12-07T14:35:28;3;3;
40947;PMS5003;49382;-25.924;28.194;2022-12-07T14:37:54;2;2;
40947;PMS5003;49382;-25.924;28.194;2022-12-07T14:40:20;1;1;
40947;PMS5003;49382;-25.924;28.194;2022-12-07T14:42:46;2;2;
40947;PMS5003;49382;-25.924;28.194;2022-12-07T14:45:13;0;0;
40947;PMS5003;49382;-25.924;28.194;2022-12-07T14:47:38;2;2;
40947;PMS5003;49382;-25.924;28.194;2022-12-07T14:50:03;1;1;
40947;PMS5003;49382;-25.924;28.194;2022-12-07T14:52:28;1;1;
40947;PMS5003;49382;-25.924;28.194;2022-12-07T14:54:54;1;1;
40947;PMS5003;49382;-25.924;28.194;2022-12-07T14:57:20;1;1;
40947;PMS5003;49382;-25.924;28.194;2022-12-07T14:59:46;2;2;
40947;PMS5003;49382;-25.924;28.194;2022-12-07T15:02:12;1;1;
40947;PMS5003;49382;-25.924;28.194;2022-12-07T15:04:38;2;2;
40947;PMS5003;49382;-25.924;28.194;2022-12-07T15:07:03;2;2;
40947;PMS5003;49382;-25.924;28.194;2022-12-07T15:09:29;2;2;
40947;PMS5003;49382;-25.924;28.194;2022-12-07T15:11:54;1;1;
40947;PMS5003;49382;-25.924;28.194;2022-12-07T15:14:20;2;2;
40947;PMS5003;49382;-25.924;28.194;2022-12-07T15:16:46;6;6;
40947;PMS5003;49382;-25.924;28.194;2022-12-07T15:19:12;1;1;
40947;PMS5003;49382;-25.924;28.194;2022-12-07T15:21:37;0;0;
40947;PMS5003;49382;-25.924;28.194;2022-12-07T15:24:03;2;2;
40947;PMS5003;49382;-25.924;28.194;2022-12-07T15:26:29;1;1;
40947;PMS5003;49382;-25.924;28.194;2022-12-07T15:28:55;3;3;
40947;PMS5003;49382;-25.924;28.194;2022-12-07T15:31:22;2;2;
40947;PMS5003;49382;-25.924;28.194;2022-12-07T15:33:45;3;3;
40947;PMS5003;49382;-25.924;28.194;2022-12-07T15:36:15;4;3;
40947;PMS5003;49382;-25.924;28.194;2022-12-07T15:38:37;2;2;
40947;PMS5003;49382;-25.924;28.194;2022-12-07T15:41:03;4;4;
40947;PMS5003;49382;-25.924;28.194;2022-12-07T15:43:28;4;4;
40947;PMS5003;49382;-25.924;28.194;2022-12-07T15:45:54;3;3;
40947;PMS5003;49382;-25.924;28.194;2022-12-07T15:48:20;5;5;
40947;PMS5003;49382;-25.924;28.194;2022-12-07T15:50:46;17;17;
40947;PMS5003;49382;-25.924;28.194;2022-12-07T15:53:12;15;14;
40947;PMS5003;49382;-25.924;28.194;2022-12-07T15:55:38;10;10;
40947;PMS5003;49382;-25.924;28.194;2022-12-07T15:58:03;7;7;
40947;PMS5003;49382;-25.924;28.194;2022-12-07T16:00:29;6;5;
40947;PMS5003;49382;-25.924;28.194;2022-12-07T16:02:55;7;7;
40947;PMS5003;49382;-25.924;28.194;2022-12-07T16:05:20;8;8;
40947;PMS5003;49382;-25.924;28.194;2022-12-07T16:07:46;5;5;
40947;PMS5003;49382;-25.924;28.194;2022-12-07T16:10:12;8;7;
40947;PMS5003;49382;-25.924;28.194;2022-12-07T16:12:38;6;6;
40947;PMS5003;49382;-25.924;28.194;2022-12-07T16:15:03;6;6;
40947;PMS5003;49382;-25.924;28.194;2022-12-07T16:17:29;8;8;
40947;PMS5003;49382;-25.924;28.194;2022-12-07T16:19:55;6;6;
40947;PMS5003;49382;-25.924;28.194;2022-12-07T16:22:20;4;4;
40947;PMS5003;49382;-25.924;28.194;2022-12-07T16:24:46;6;6;
40947;PMS5003;49382;-25.924;28.194;2022-12-07T16:27:12;7;6;
40947;PMS5003;49382;-25.924;28.194;2022-12-07T16:29:38;6;6;
40947;PMS5003;49382;-25.924;28.194;2022-12-07T16:32:04;7;7;
40947;PMS5003;49382;-25.924;28.194;2022-12-07T16:34:29;6;6;
40947;PMS5003;49382;-25.924;28.194;2022-12-07T16:36:55;5;5;
40947;PMS5003;49382;-25.924;28.194;2022-12-07T16:39:21;4;4;
40947;PMS5003;49382;-25.924;28.194;2022-12-07T16:41:47;4;4;
40947;PMS5003;49382;-25.924;28.194;2022-12-07T16:44:12;6;6;
40947;PMS5003;49382;-25.924;28.194;2022-12-07T16:46:38;11;11;
40947;PMS5003;49382;-25.924;28.194;2022-12-07T16:49:04;7;6;
40947;PMS5003;49382;-25.924;28.194;2022-12-07T16:51:30;5;5;
40947;PMS5003;49382;-25.924;28.194;2022-12-07T16:53:55;4;4;
40947;PMS5003;49382;-25.924;28.194;2022-12-07T16:56:21;6;5;
40947;PMS5003;49382;-25.924;28.194;2022-12-07T16:58:47;7;6;